Time;durP1;ratioP1;P1;durP2;ratioP2;P2;SDS_P1;SDS_P2;PMS_P1;PMS_P2;Temp;Humidity;BMP_temperature;BMP_pressure;BME280_temperature;BME280_humidity;BME280_pressure;Samples;Min_cycle;Max_cycle;Signal;HPM_P1;HPM_P2
2022/03/30 00:01:16;;;;;;;8.50;6.40;;;12.70;65.50;;;;;;4993523;28;20025;-79
2022/03/30 00:03:42;;;;;;;9.15;6.03;;;12.70;65.40;;;;;;5009989;28;20386;-79
2022/03/30 00:06:08;;;;;;;8.80;6.35;;;12.70;65.50;;;;;;4991196;28;20466;-78
2022/03/30 00:08:34;;;;;;;8.13;5.97;;;12.60;65.40;;;;;;4998129;28;20040;-79
2022/03/30 00:11:00;;;;;;;9.30;6.15;;;12.60;65.40;;;;;;5014651;28;20474;-79
2022/03/30 00:13:27;;;;;;;9.55;6.50;;;12.60;65.40;;;;;;5010819;28;20209;-80
2022/03/30 00:15:53;;;;;;;8.52;5.93;;;12.50;65.30;;;;;;4994580;28;20025;-79
2022/03/30 00:18:19;;;;;;;8.43;6.00;;;12.50;65.30;;;;;;4983961;28;20061;-78
2022/03/30 00:20:45;;;;;;;8.52;5.63;;;12.50;65.30;;;;;;4995861;28;20037;-80
2022/03/30 00:23:19;;;;;;;8.77;5.90;;;12.50;65.30;;;;;;4977915;28;20030;-79
2022/03/30 00:25:45;;;;;;;7.75;5.30;;;12.40;65.20;;;;;;4991183;28;20041;-78
2022/03/30 00:28:10;;;;;;;8.52;6.50;;;12.40;65.20;;;;;;4996462;28;20033;-77
2022/03/30 00:30:36;;;;;;;8.85;5.88;;;12.40;65.20;;;;;;5029631;28;20405;-78
2022/03/30 00:33:02;;;;;;;8.85;5.85;;;12.30;65.20;;;;;;5013796;28;20030;-78
2022/03/30 00:35:28;;;;;;;7.78;5.47;;;12.30;65.20;;;;;;4998150;28;20109;-78
2022/03/30 00:37:54;;;;;;;7.93;5.63;;;12.30;65.20;;;;;;4997326;28;20041;-78
2022/03/30 00:40:20;;;;;;;8.10;5.75;;;12.20;65.20;;;;;;5014118;28;20071;-79
2022/03/30 00:42:46;;;;;;;8.65;5.40;;;12.20;65.20;;;;;;4976210;28;20034;-78
2022/03/30 00:45:14;;;;;;;8.45;5.93;;;12.20;65.20;;;;;;4994582;28;20052;-78
2022/03/30 00:47:41;;;;;;;8.68;5.78;;;12.20;65.20;;;;;;5006525;28;20481;-79
2022/03/30 00:50:09;;;;;;;8.27;5.80;;;12.20;65.20;;;;;;4997864;28;20030;-78
2022/03/30 00:52:36;;;;;;;8.32;5.43;;;12.20;65.20;;;;;;4997209;28;20090;-78
2022/03/30 00:55:04;;;;;;;7.88;5.53;;;12.10;65.20;;;;;;5009275;28;20689;-79
2022/03/30 00:57:32;;;;;;;9.25;6.20;;;12.10;65.20;;;;;;4996759;28;20175;-79
2022/03/30 00:59:58;;;;;;;9.07;5.90;;;12.10;65.20;;;;;;4995889;28;20030;-79
2022/03/30 01:02:25;;;;;;;9.52;6.07;;;12.00;65.20;;;;;;4998017;28;20025;-80
2022/03/30 01:04:51;;;;;;;9.35;5.90;;;12.00;65.20;;;;;;5008528;28;20034;-80
2022/03/30 01:07:17;;;;;;;8.88;5.80;;;12.00;65.20;;;;;;4997090;28;20037;-79
2022/03/30 01:09:43;;;;;;;8.52;5.45;;;11.90;65.10;;;;;;4997006;28;20498;-80
2022/03/30 01:12:11;;;;;;;9.40;5.88;;;11.90;65.10;;;;;;4979781;28;20026;-78
2022/03/30 01:14:37;;;;;;;10.35;6.00;;;11.90;65.10;;;;;;4990098;28;20025;-79
2022/03/30 01:17:04;;;;;;;8.60;6.20;;;11.90;65.20;;;;;;4992834;28;20572;-78
2022/03/30 01:19:31;;;;;;;9.50;5.80;;;11.80;65.10;;;;;;4992980;28;20045;-77
2022/03/30 01:21:58;;;;;;;9.30;6.00;;;11.80;65.80;;;;;;4999651;28;20083;-78
2022/03/30 01:24:24;;;;;;;8.30;5.18;;;11.80;65.20;;;;;;5021144;28;20029;-79
2022/03/30 01:26:50;;;;;;;8.32;5.47;;;11.70;65.10;;;;;;4999443;28;20375;-80
2022/03/30 01:34:45;;;;;;;8.75;5.47;;;11.70;65.20;;;;;;5025404;28;20040;-78
2022/03/30 01:37:13;;;;;;;9.18;5.70;;;11.60;65.10;;;;;;4980484;28;20029;-79
2022/03/30 01:39:40;;;;;;;9.07;5.50;;;11.60;65.20;;;;;;5012107;28;20029;-79
2022/03/30 01:42:06;;;;;;;8.48;5.55;;;11.60;65.20;;;;;;5030669;28;20036;-79
2022/03/30 01:44:33;;;;;;;11.18;5.22;;;11.50;65.20;;;;;;5013005;28;20033;-80
2022/03/30 01:46:59;;;;;;;8.60;5.63;;;11.50;65.20;;;;;;5007280;28;20173;-79
2022/03/30 01:49:25;;;;;;;8.75;5.43;;;11.50;65.20;;;;;;5005170;28;20543;-78
2022/03/30 01:51:56;;;;;;;8.50;5.63;;;11.50;65.30;;;;;;4978158;28;20033;-80
2022/03/30 01:54:27;;;;;;;9.57;5.55;;;11.40;65.20;;;;;;4992234;28;20558;-79
2022/03/30 01:56:54;;;;;;;8.32;5.90;;;11.50;65.30;;;;;;5019379;28;20478;-79
2022/03/30 01:59:21;;;;;;;9.85;5.50;;;11.40;65.30;;;;;;5006961;28;20049;-79
2022/03/30 02:01:47;;;;;;;8.25;5.45;;;11.40;65.30;;;;;;4996031;28;20064;-79
2022/03/30 02:04:14;;;;;;;7.43;5.13;;;11.40;65.30;;;;;;4996167;28;20037;-79
2022/03/30 02:06:40;;;;;;;8.85;5.88;;;11.40;65.30;;;;;;4993699;28;20053;-79
2022/03/30 02:09:07;;;;;;;8.45;5.65;;;11.30;65.30;;;;;;4985283;28;20168;-79
2022/03/30 02:11:33;;;;;;;8.52;5.40;;;11.30;65.30;;;;;;5011837;28;20028;-78
2022/03/30 02:14:00;;;;;;;8.18;5.50;;;11.30;65.30;;;;;;4994900;28;20030;-79
2022/03/30 02:16:26;;;;;;;8.63;5.22;;;11.20;65.30;;;;;;5011961;28;20083;-78
2022/03/30 02:18:52;;;;;;;8.35;5.18;;;11.30;65.40;;;;;;4996401;28;20029;-78
2022/03/30 02:21:18;;;;;;;6.88;5.28;;;11.20;65.30;;;;;;4993050;28;20518;-78
2022/03/30 02:23:45;;;;;;;8.13;4.97;;;11.20;65.40;;;;;;4995463;28;20117;-78
2022/03/30 02:26:15;;;;;;;8.07;5.00;;;11.10;65.30;;;;;;4992293;28;20038;-79
2022/03/30 02:28:42;;;;;;;8.63;5.03;;;11.10;65.40;;;;;;4994631;28;20474;-78
2022/03/30 02:31:08;;;;;;;7.70;4.93;;;11.10;65.40;;;;;;4994260;28;20080;-78
2022/03/30 02:33:34;;;;;;;8.05;5.40;;;11.10;65.40;;;;;;4995052;28;20022;-79
2022/03/30 02:36:00;;;;;;;7.20;4.90;;;11.10;65.40;;;;;;4992439;28;20556;-78
2022/03/30 02:38:25;;;;;;;8.38;5.43;;;11.00;65.40;;;;;;4986706;28;20054;-78
2022/03/30 02:40:51;;;;;;;8.63;5.18;;;11.00;65.40;;;;;;5012489;28;20532;-79
2022/03/30 02:43:19;;;;;;;7.05;5.15;;;11.00;65.40;;;;;;4993183;28;20375;-78
2022/03/30 02:45:46;;;;;;;6.78;4.63;;;10.90;65.40;;;;;;5029294;28;20048;-78
2022/03/30 02:48:18;;;;;;;7.60;4.88;;;11.00;66.10;;;;;;5005229;28;20034;-79
2022/03/30 02:50:50;;;;;;;8.73;4.95;;;10.90;65.40;;;;;;4975903;28;20048;-79
2022/03/30 02:53:17;;;;;;;7.25;5.03;;;10.80;65.40;;;;;;5004834;28;20029;-78
2022/03/30 02:55:43;;;;;;;8.57;4.97;;;10.90;65.50;;;;;;5011602;28;20044;-78
2022/03/30 02:58:10;;;;;;;7.53;4.93;;;10.80;65.40;;;;;;5011499;28;20104;-78
2022/03/30 03:00:37;;;;;;;8.43;5.07;;;10.80;65.40;;;;;;4993473;28;20030;-78
2022/03/30 03:03:04;;;;;;;8.88;5.82;;;10.80;65.50;;;;;;5009525;28;20079;-79
2022/03/30 03:05:32;;;;;;;8.05;5.13;;;10.70;65.40;;;;;;4994926;28;20163;-79
2022/03/30 03:08:01;;;;;;;7.13;4.78;;;10.80;65.50;;;;;;5006181;28;20041;-80
2022/03/30 03:10:28;;;;;;;7.70;4.80;;;10.70;65.50;;;;;;5008958;28;20109;-79
2022/03/30 03:12:54;;;;;;;6.95;4.88;;;10.70;65.50;;;;;;4998975;28;20409;-79
2022/03/30 03:15:20;;;;;;;8.80;5.00;;;10.70;65.60;;;;;;4998686;28;20041;-79
2022/03/30 03:17:46;;;;;;;7.97;4.95;;;10.60;65.50;;;;;;4996422;28;20513;-79
2022/03/30 03:20:12;;;;;;;7.97;5.00;;;10.60;65.50;;;;;;5006567;28;20026;-78
2022/03/30 03:22:38;;;;;;;8.43;5.45;;;10.60;65.50;;;;;;5004060;28;20029;-78
2022/03/30 03:25:05;;;;;;;8.45;5.15;;;10.60;65.50;;;;;;4994386;28;20056;-78
2022/03/30 03:27:31;;;;;;;8.20;5.28;;;10.60;65.60;;;;;;5013318;28;20390;-78
2022/03/30 03:29:57;;;;;;;7.70;5.03;;;10.50;65.50;;;;;;4997842;28;20026;-79
2022/03/30 03:32:23;;;;;;;10.35;5.75;;;10.50;65.50;;;;;;4982956;28;20394;-78
2022/03/30 03:34:48;;;;;;;7.63;5.30;;;10.40;65.50;;;;;;4980547;28;20061;-78
2022/03/30 03:37:15;;;;;;;7.43;4.78;;;10.40;65.50;;;;;;4998824;28;20426;-79
2022/03/30 03:39:42;;;;;;;8.23;5.15;;;10.40;65.60;;;;;;4986367;28;20037;-79
2022/03/30 03:42:08;;;;;;;7.78;5.10;;;10.40;65.60;;;;;;5011045;28;20049;-79
2022/03/30 03:44:34;;;;;;;8.55;5.55;;;10.40;65.60;;;;;;4996105;28;20113;-78
2022/03/30 03:47:00;;;;;;;7.97;4.88;;;10.30;65.60;;;;;;5010382;28;20030;-81
2022/03/30 03:49:25;;;;;;;7.80;5.38;;;10.30;65.60;;;;;;4996235;28;20096;-79
2022/03/30 03:51:51;;;;;;;8.70;5.05;;;10.30;65.60;;;;;;5019313;28;20021;-78
2022/03/30 03:54:18;;;;;;;8.32;5.57;;;10.30;65.60;;;;;;4981426;28;20029;-79
2022/03/30 03:56:43;;;;;;;8.60;5.35;;;10.30;65.60;;;;;;5015719;28;20075;-78
2022/03/30 03:59:10;;;;;;;8.68;5.00;;;10.20;65.60;;;;;;4982016;28;20041;-79
2022/03/30 04:01:37;;;;;;;8.70;5.20;;;10.20;65.60;;;;;;4998947;28;20065;-79
2022/03/30 04:04:03;;;;;;;8.27;5.20;;;10.20;65.60;;;;;;4995744;28;20093;-79
2022/03/30 04:06:30;;;;;;;8.30;4.95;;;10.10;65.60;;;;;;4990061;28;20471;-78
2022/03/30 04:08:56;;;;;;;8.35;5.18;;;10.10;65.60;;;;;;4995025;28;20036;-78
2022/03/30 04:11:21;;;;;;;9.75;5.88;;;10.10;65.70;;;;;;4990688;28;20037;-78
2022/03/30 04:13:47;;;;;;;7.68;4.88;;;10.00;65.60;;;;;;5008707;28;20557;-78
2022/03/30 04:16:16;;;;;;;8.00;5.15;;;10.00;65.70;;;;;;4995836;28;20125;-78
2022/03/30 04:18:42;;;;;;;7.22;4.72;;;10.00;65.70;;;;;;4994538;28;20099;-79
2022/03/30 04:21:08;;;;;;;8.27;5.30;;;10.00;65.70;;;;;;5015017;28;20053;-79
2022/03/30 04:23:34;;;;;;;7.80;5.47;;;10.00;65.70;;;;;;5008968;28;20022;-78
2022/03/30 04:26:00;;;;;;;11.13;6.07;;;10.00;65.70;;;;;;5021082;28;20033;-79
2022/03/30 04:28:26;;;;;;;8.70;5.68;;;9.90;65.70;;;;;;4998417;28;20398;-78
2022/03/30 04:30:51;;;;;;;6.70;5.15;;;9.90;65.70;;;;;;4997475;28;20094;-79
2022/03/30 04:33:17;;;;;;;7.90;5.32;;;9.90;65.70;;;;;;5013937;28;20042;-78
2022/03/30 04:35:43;;;;;;;8.40;5.25;;;9.80;65.60;;;;;;4995708;28;20398;-79
2022/03/30 04:38:09;;;;;;;8.75;4.97;;;9.80;65.70;;;;;;4997667;28;20034;-78
2022/03/30 04:40:35;;;;;;;7.57;5.35;;;9.80;65.70;;;;;;4995011;28;20316;-79
2022/03/30 04:43:03;;;;;;;8.73;5.88;;;9.80;65.70;;;;;;5004452;28;20029;-77
2022/03/30 04:45:28;;;;;;;7.05;5.03;;;9.80;65.80;;;;;;5011301;28;20041;-77
2022/03/30 04:47:54;;;;;;;7.95;5.18;;;9.70;65.70;;;;;;5010919;28;20025;-76
2022/03/30 04:50:21;;;;;;;8.15;5.13;;;9.70;65.80;;;;;;4977383;28;20037;-77
2022/03/30 04:52:47;;;;;;;7.70;5.10;;;9.60;65.70;;;;;;5027071;28;20100;-77
2022/03/30 04:55:13;;;;;;;8.77;5.70;;;9.60;65.70;;;;;;5011906;28;20112;-78
2022/03/30 04:57:40;;;;;;;8.40;5.88;;;9.60;65.70;;;;;;5008818;28;20738;-78
2022/03/30 05:00:08;;;;;;;8.05;5.20;;;9.60;65.80;;;;;;4996175;28;20060;-78
2022/03/30 05:02:34;;;;;;;8.25;5.22;;;9.60;65.80;;;;;;5013401;28;20132;-78
2022/03/30 05:05:00;;;;;;;7.72;4.70;;;9.60;65.80;;;;;;4995708;28;20120;-77
2022/03/30 05:07:26;;;;;;;8.13;5.20;;;9.50;65.80;;;;;;4987684;28;20233;-77
2022/03/30 05:09:52;;;;;;;8.77;5.22;;;9.50;65.80;;;;;;4993178;28;20394;-77
2022/03/30 05:12:18;;;;;;;9.00;5.80;;;9.50;65.80;;;;;;4991488;28;20064;-77
2022/03/30 05:14:44;;;;;;;8.07;5.35;;;9.50;65.80;;;;;;4993088;28;20109;-78
2022/03/30 05:17:10;;;;;;;8.57;5.55;;;9.40;65.80;;;;;;4993030;28;20091;-78
2022/03/30 05:19:37;;;;;;;8.10;5.75;;;9.40;65.80;;;;;;5013039;28;20041;-78
2022/03/30 05:22:07;;;;;;;7.85;5.20;;;9.40;65.80;;;;;;4990804;28;20552;-78
2022/03/30 05:24:33;;;;;;;7.47;5.25;;;9.40;65.90;;;;;;5005307;28;20445;-79
2022/03/30 05:26:59;;;;;;;8.75;5.63;;;9.40;65.90;;;;;;5003898;28;20038;-78
2022/03/30 05:29:25;;;;;;;10.68;5.72;;;9.30;65.80;;;;;;5005724;28;20073;-79
2022/03/30 05:31:50;;;;;;;8.88;5.70;;;9.30;65.90;;;;;;5000488;28;20471;-76
2022/03/30 05:34:16;;;;;;;8.65;5.38;;;9.30;65.90;;;;;;4979655;28;20438;-77
2022/03/30 05:36:42;;;;;;;9.07;5.47;;;9.20;65.90;;;;;;5006140;28;20026;-77
2022/03/30 05:39:08;;;;;;;8.93;6.03;;;9.20;65.90;;;;;;5005668;28;20048;-78
2022/03/30 05:41:34;;;;;;;8.68;5.55;;;9.20;65.90;;;;;;4997975;28;20091;-76
2022/03/30 05:44:02;;;;;;;7.70;5.45;;;9.20;65.90;;;;;;5006262;28;20025;-77
2022/03/30 05:46:28;;;;;;;10.93;5.65;;;9.20;66.00;;;;;;5014071;28;20064;-77
2022/03/30 05:48:54;;;;;;;8.18;5.35;;;9.10;65.90;;;;;;4997419;28;20049;-78
2022/03/30 05:51:20;;;;;;;8.27;5.68;;;9.10;65.90;;;;;;4996846;28;20037;-76
2022/03/30 05:53:47;;;;;;;9.43;6.13;;;9.10;66.00;;;;;;4981423;28;20521;-77
2022/03/30 05:56:13;;;;;;;10.07;5.90;;;9.10;66.00;;;;;;5013763;28;20021;-78
2022/03/30 05:58:38;;;;;;;9.20;5.70;;;9.10;66.00;;;;;;5029586;28;20432;-77
2022/03/30 06:01:04;;;;;;;9.25;5.80;;;9.00;66.00;;;;;;4997311;28;20484;-77
2022/03/30 06:03:30;;;;;;;8.20;5.30;;;9.00;66.00;;;;;;5031230;28;20040;-78
2022/03/30 06:05:56;;;;;;;9.63;5.95;;;9.00;66.00;;;;;;5013569;28;20029;-76
2022/03/30 06:08:22;;;;;;;10.13;6.22;;;8.90;66.00;;;;;;4996536;28;20052;-77
2022/03/30 06:10:49;;;;;;;8.45;5.68;;;9.00;66.10;;;;;;5031024;28;20053;-77
2022/03/30 06:13:15;;;;;;;8.57;5.38;;;8.90;66.00;;;;;;5013260;28;20471;-77
2022/03/30 06:15:41;;;;;;;8.07;5.28;;;8.90;66.10;;;;;;4996900;28;20028;-77
2022/03/30 06:18:10;;;;;;;8.55;5.50;;;8.90;66.10;;;;;;4996022;28;20482;-76
2022/03/30 06:20:39;;;;;;;9.23;5.68;;;8.90;66.10;;;;;;5013615;28;20041;-78
2022/03/30 06:23:05;;;;;;;10.00;6.03;;;8.90;66.20;;;;;;4996110;28;20095;-77
2022/03/30 06:25:32;;;;;;;8.93;5.72;;;8.90;66.20;;;;;;5013024;28;20384;-75
2022/03/30 06:27:58;;;;;;;8.77;5.70;;;8.80;66.20;;;;;;5013131;28;20076;-75
2022/03/30 06:30:25;;;;;;;8.25;5.55;;;8.90;66.30;;;;;;4996465;28;20037;-75
2022/03/30 06:32:52;;;;;;;7.57;5.00;;;8.80;66.30;;;;;;5011018;28;20048;-75
2022/03/30 06:35:19;;;;;;;9.38;5.55;;;8.80;66.30;;;;;;5030517;28;20488;-76
2022/03/30 06:37:46;;;;;;;9.20;5.72;;;8.80;66.30;;;;;;5029224;28;20386;-76
2022/03/30 06:40:13;;;;;;;8.65;5.80;;;8.80;66.40;;;;;;5012937;28;20107;-77
2022/03/30 06:42:39;;;;;;;7.75;5.35;;;8.80;66.40;;;;;;5012972;28;20050;-76
2022/03/30 06:45:07;;;;;;;7.63;5.30;;;8.80;66.40;;;;;;5031864;28;20026;-76
2022/03/30 06:47:33;;;;;;;10.98;5.97;;;8.80;66.40;;;;;;4979233;28;20247;-76
2022/03/30 06:49:59;;;;;;;8.50;5.65;;;8.80;66.40;;;;;;5019604;28;20037;-75
2022/03/30 06:52:26;;;;;;;8.70;5.55;;;8.80;66.40;;;;;;5006136;28;20477;-74
2022/03/30 06:54:52;;;;;;;7.65;4.95;;;8.80;66.50;;;;;;5003194;28;20120;-75
2022/03/30 06:57:20;;;;;;;8.15;5.18;;;8.80;66.50;;;;;;5017554;28;20413;-75
2022/03/30 06:59:46;;;;;;;8.40;4.88;;;8.80;66.50;;;;;;5016076;28;20057;-76
2022/03/30 07:02:12;;;;;;;8.43;5.55;;;8.70;66.50;;;;;;4983946;28;20038;-76
2022/03/30 07:04:38;;;;;;;7.88;5.30;;;8.70;66.60;;;;;;5017196;28;20052;-77
2022/03/30 07:12:33;;;;;;;9.35;5.78;;;8.70;66.60;;;;;;5000234;28;20474;-78
2022/03/30 07:15:00;;;;;;;9.10;5.88;;;8.80;66.70;;;;;;4983904;28;20104;-77
2022/03/30 07:17:27;;;;;;;8.57;5.32;;;8.70;66.70;;;;;;5015983;28;20509;-80
2022/03/30 07:19:52;;;;;;;8.65;5.20;;;8.80;66.80;;;;;;5000113;28;20041;-78
2022/03/30 07:22:18;;;;;;;8.35;5.57;;;8.80;66.90;;;;;;4991415;28;20035;-78
2022/03/30 07:24:44;;;;;;;8.88;5.10;;;8.80;66.90;;;;;;4998725;28;20026;-78
2022/03/30 07:27:10;;;;;;;7.50;4.82;;;8.80;67.00;;;;;;5016776;28;20056;-78
2022/03/30 07:29:36;;;;;;;7.55;5.20;;;8.80;66.90;;;;;;5016225;28;20045;-78
2022/03/30 07:32:02;;;;;;;8.00;5.13;;;8.80;67.60;;;;;;4999873;28;20506;-79
2022/03/30 07:34:29;;;;;;;8.48;5.30;;;8.80;67.00;;;;;;5016328;28;20064;-79
2022/03/30 07:36:55;;;;;;;8.00;4.90;;;8.90;67.10;;;;;;5015618;28;20461;-79
2022/03/30 07:39:21;;;;;;;7.50;4.43;;;8.90;67.10;;;;;;5016097;28;20049;-79
2022/03/30 07:41:47;;;;;;;8.02;5.30;;;8.90;67.10;;;;;;5004997;28;20430;-78
2022/03/30 07:44:12;;;;;;;7.38;4.40;;;8.90;67.10;;;;;;5000242;28;20033;-79
2022/03/30 07:46:39;;;;;;;7.47;5.03;;;9.00;67.10;;;;;;4996813;28;20510;-79
2022/03/30 07:49:05;;;;;;;6.57;4.30;;;8.90;67.10;;;;;;4997156;28;20121;-79
2022/03/30 07:51:30;;;;;;;8.80;5.18;;;9.00;67.10;;;;;;5012092;28;20118;-79
2022/03/30 07:53:56;;;;;;;7.55;4.60;;;9.00;67.10;;;;;;5016436;28;20125;-79
2022/03/30 07:56:22;;;;;;;8.48;4.53;;;9.00;67.10;;;;;;5015497;28;20032;-80
2022/03/30 07:58:49;;;;;;;7.57;4.88;;;9.10;67.20;;;;;;5025427;28;20119;-79
2022/03/30 08:01:16;;;;;;;8.38;4.47;;;9.10;67.20;;;;;;5000155;28;20056;-79
2022/03/30 08:03:45;;;;;;;7.43;4.53;;;9.10;67.20;;;;;;5034161;28;20076;-79
2022/03/30 08:06:12;;;;;;;6.97;4.45;;;9.10;67.20;;;;;;5003876;28;20376;-79
2022/03/30 08:08:39;;;;;;;7.90;4.70;;;9.10;67.20;;;;;;5014332;28;20105;-80
2022/03/30 08:11:05;;;;;;;7.88;5.28;;;9.10;67.20;;;;;;4996154;28;20044;-80
2022/03/30 08:13:31;;;;;;;7.88;5.03;;;9.20;67.30;;;;;;4980287;28;20070;-78
2022/03/30 08:15:56;;;;;;;6.07;4.47;;;9.20;67.30;;;;;;4999659;28;20055;-79
2022/03/30 08:18:22;;;;;;;6.90;4.63;;;9.20;67.30;;;;;;5015688;28;20371;-79
2022/03/30 08:23:35;;;;;;;6.38;4.60;;;9.30;67.40;;;;;;5011158;28;20030;-79
2022/03/30 08:26:01;;;;;;;6.35;4.13;;;9.30;67.40;;;;;;4999726;28;20037;-79
2022/03/30 08:28:27;;;;;;;8.15;5.45;;;9.30;67.40;;;;;;4998535;28;20037;-78
2022/03/30 08:30:53;;;;;;;7.57;4.72;;;9.30;67.50;;;;;;5033432;28;20036;-79
2022/03/30 08:33:23;;;;;;;8.77;5.10;;;9.30;67.50;;;;;;4997820;28;20033;-79
2022/03/30 08:35:50;;;;;;;7.65;5.10;;;9.40;67.50;;;;;;5005140;28;20040;-78
2022/03/30 08:38:16;;;;;;;7.05;4.50;;;9.40;67.50;;;;;;5005527;28;20044;-81
2022/03/30 08:40:42;;;;;;;9.43;5.70;;;9.40;67.50;;;;;;4994610;28;20403;-79
2022/03/30 08:43:08;;;;;;;7.32;4.68;;;9.40;67.50;;;;;;5026295;28;20021;-78
2022/03/30 08:45:34;;;;;;;8.10;4.55;;;9.50;67.50;;;;;;4998006;28;20060;-78
2022/03/30 08:48:04;;;;;;;7.78;4.63;;;9.50;67.60;;;;;;5015103;28;20406;-79
2022/03/30 08:50:31;;;;;;;7.60;4.75;;;9.50;67.50;;;;;;5014671;28;20033;-78
2022/03/30 08:53:01;;;;;;;7.90;4.82;;;9.60;67.50;;;;;;5014072;28;20040;-79
2022/03/30 08:55:27;;;;;;;7.00;4.40;;;9.60;67.60;;;;;;5014089;28;20428;-78
2022/03/30 08:57:53;;;;;;;7.00;4.63;;;9.60;67.50;;;;;;4998104;28;20062;-78
2022/03/30 09:00:20;;;;;;;6.78;4.30;;;9.60;67.50;;;;;;4978889;28;20069;-78
2022/03/30 09:02:55;;;;;;;6.63;4.13;;;9.70;67.60;;;;;;4995323;28;20034;-79
2022/03/30 09:05:25;;;;;;;;;;;9.70;67.60;;;;;;4979259;28;20123;-78
2022/03/30 09:07:54;;;;;;;6.32;4.15;;;9.80;67.50;;;;;;4994623;28;20000;-78
2022/03/30 09:10:22;;;;;;;6.38;4.05;;;9.80;67.40;;;;;;4996929;28;20502;-78
2022/03/30 09:12:50;;;;;;;5.85;3.85;;;9.80;67.50;;;;;;4994861;28;20430;-78
2022/03/30 09:15:16;;;;;;;6.82;4.10;;;9.90;67.60;;;;;;4995031;28;20119;-78
2022/03/30 09:17:43;;;;;;;7.95;4.57;;;9.90;67.50;;;;;;5011072;28;20528;-78
2022/03/30 09:20:16;;;;;;;7.15;4.68;;;10.00;67.50;;;;;;4979149;28;20041;-77
2022/03/30 09:23:02;;;;;;;6.18;4.10;;;10.00;67.60;;;;;;5011242;28;20080;-78
2022/03/30 09:25:31;;;;;;;6.18;4.05;;;10.10;67.60;;;;;;4977969;28;20045;-79
2022/03/30 09:27:59;;;;;;;6.53;4.10;;;10.20;67.50;;;;;;4995040;28;20041;-80
2022/03/30 09:30:26;;;;;;;5.93;4.18;;;10.20;67.40;;;;;;5011126;28;20434;-79
2022/03/30 09:32:59;;;;;;;6.10;3.88;;;10.20;67.40;;;;;;4995010;28;20033;-79
2022/03/30 09:35:32;;;;;;;6.75;4.22;;;10.30;67.30;;;;;;4978823;28;20398;-80
2022/03/30 09:38:13;;;;;;;5.95;4.25;;;10.40;67.30;;;;;;5010843;28;20038;-79
2022/03/30 09:40:51;;;;;;;6.28;3.95;;;10.50;67.20;;;;;;4994626;28;20488;-80
2022/03/30 09:43:22;;;;;;;6.28;4.00;;;10.50;67.20;;;;;;4994297;28;20097;-79
2022/03/30 09:45:50;;;;;;;8.60;4.72;;;10.60;67.20;;;;;;4994432;28;20052;-79
2022/03/30 09:48:24;;;;;;;7.85;4.47;;;10.70;67.10;;;;;;5006610;28;20033;-79
2022/03/30 09:50:52;;;;;;;6.68;4.07;;;10.70;67.10;;;;;;5013342;28;20026;-78
2022/03/30 09:53:21;;;;;;;6.55;3.97;;;10.80;67.10;;;;;;4996855;28;20013;-83
2022/03/30 09:56:03;;;;;;;6.88;4.45;;;10.90;67.10;;;;;;5030838;28;20096;-81
2022/03/30 09:58:31;;;;;;;5.18;3.50;;;11.00;67.10;;;;;;5011795;28;20045;-76
2022/03/30 10:01:04;;;;;;;5.88;4.03;;;11.00;66.90;;;;;;5013155;28;20341;-79
2022/03/30 10:03:52;;;;;;;6.78;3.97;;;11.10;67.00;;;;;;4996869;28;20509;-77
2022/03/30 10:06:20;;;;;;;5.55;3.70;;;11.20;67.00;;;;;;5030050;28;20605;-80
2022/03/30 10:08:47;;;;;;;6.10;3.97;;;11.20;66.80;;;;;;4993281;28;20029;-79
2022/03/30 10:11:16;;;;;;;5.40;3.67;;;11.30;66.80;;;;;;5010592;28;20497;-76
2022/03/30 10:13:44;;;;;;;6.13;4.00;;;11.40;66.80;;;;;;4996699;28;20033;-76
2022/03/30 10:16:10;;;;;;;6.28;4.20;;;11.50;66.80;;;;;;4996720;28;20041;-76
2022/03/30 10:18:37;;;;;;;6.38;4.20;;;11.60;66.80;;;;;;4993125;28;20042;-76
2022/03/30 10:21:19;;;;;;;5.38;3.85;;;11.60;66.70;;;;;;5024268;28;20522;-76
2022/03/30 10:24:16;;;;;;;5.90;3.85;;;11.70;66.70;;;;;;5012810;28;20501;-74
2022/03/30 10:27:06;;;;;;;6.53;3.90;;;11.80;66.60;;;;;;5011480;28;20478;-74
2022/03/30 10:29:35;;;;;;;5.25;3.38;;;11.90;66.70;;;;;;5010984;28;20030;-76
2022/03/30 10:32:19;;;;;;;5.75;3.97;;;12.00;66.60;;;;;;5030076;28;20039;-76
2022/03/30 10:34:56;;;;;;;6.03;3.80;;;12.10;66.80;;;;;;5011441;28;20101;-77
2022/03/30 10:37:37;;;;;;;5.40;3.60;;;12.20;66.70;;;;;;5012851;28;20029;-76
2022/03/30 10:40:05;;;;;;;5.35;3.53;;;12.30;66.70;;;;;;5028462;28;20028;-76
2022/03/30 10:42:46;;;;;;;5.13;3.42;;;12.40;66.70;;;;;;5015166;28;20045;-76
2022/03/30 10:45:44;;;;;;;5.97;4.00;;;12.50;66.80;;;;;;5028493;28;20056;-73
2022/03/30 10:48:34;;;;;;;4.55;3.28;;;12.60;66.80;;;;;;5030247;28;20034;-73
2022/03/30 10:51:17;;;;;;;6.07;3.80;;;12.70;66.80;;;;;;4980209;28;20041;-74
2022/03/30 10:53:49;;;;;;;5.78;3.50;;;12.80;66.80;;;;;;4992582;28;20026;-74
2022/03/30 10:56:15;;;;;;;6.20;4.13;;;12.90;66.70;;;;;;4992921;28;20064;-75
2022/03/30 10:58:52;;;;;;;5.93;3.63;;;13.00;66.80;;;;;;4998249;28;20076;-74
2022/03/30 11:01:28;;;;;;;5.43;3.67;;;13.10;67.00;;;;;;5028079;28;20038;-74
2022/03/30 11:04:03;;;;;;;4.97;3.28;;;13.20;66.90;;;;;;5012553;28;20079;-74
2022/03/30 11:06:31;;;;;;;5.25;3.35;;;13.20;66.80;;;;;;5012637;28;20037;-76
2022/03/30 11:08:58;;;;;;;5.60;3.80;;;13.40;66.80;;;;;;4995694;28;20030;-76
2022/03/30 11:11:39;;;;;;;5.18;3.75;;;13.50;66.80;;;;;;5001044;28;20527;-76
2022/03/30 11:14:58;;;;;;;5.82;3.67;;;13.60;66.80;;;;;;4994108;28;20034;-76
2022/03/30 11:17:32;;;;;;;4.93;3.25;;;13.70;66.90;;;;;;4933267;29;20040;-76
2022/03/30 11:19:58;;;;;;;5.28;3.47;;;13.80;66.80;;;;;;4933096;29;20062;-77
2022/03/30 11:22:29;;;;;;;5.00;3.10;;;13.90;66.70;;;;;;4953838;28;20486;-75
2022/03/30 11:25:22;;;;;;;4.63;3.03;;;14.00;66.80;;;;;;4992306;28;20033;-77
2022/03/30 11:27:57;;;;;;;4.43;3.17;;;14.10;67.00;;;;;;5003856;28;20025;-77
2022/03/30 11:30:30;;;;;;;5.32;3.45;;;14.20;66.90;;;;;;5011667;28;20052;-77
2022/03/30 11:32:57;;;;;;;6.32;3.67;;;14.20;66.80;;;;;;5030819;28;20043;-77
2022/03/30 11:35:28;;;;;;;5.50;3.42;;;14.30;66.80;;;;;;4998870;28;20061;-77
2022/03/30 11:38:21;;;;;;;5.50;3.50;;;14.40;66.80;;;;;;5010248;28;20113;-77
2022/03/30 11:40:48;;;;;;;5.13;3.10;;;14.40;66.80;;;;;;5019214;28;20034;-76
2022/03/30 11:43:16;;;;;;;4.45;3.13;;;14.50;66.60;;;;;;5010177;28;20025;-77
2022/03/30 11:45:42;;;;;;;5.53;3.42;;;14.60;66.60;;;;;;5014991;28;20057;-77
2022/03/30 11:48:11;;;;;;;4.95;3.13;;;14.60;66.50;;;;;;4987340;28;20069;-80
2022/03/30 11:50:42;;;;;;;4.60;3.33;;;14.70;66.50;;;;;;4997827;28;20025;-79
2022/03/30 11:53:14;;;;;;;5.80;3.33;;;14.70;66.40;;;;;;5013435;28;20028;-77
2022/03/30 11:55:59;;;;;;;4.88;3.00;;;14.80;66.40;;;;;;5006772;28;20018;-78
2022/03/30 11:58:28;;;;;;;5.60;3.67;;;14.80;66.30;;;;;;4998734;28;20045;-78
2022/03/30 12:00:56;;;;;;;4.38;3.03;;;14.90;66.10;;;;;;5032677;28;20037;-77
2022/03/30 12:03:23;;;;;;;4.18;2.97;;;14.90;66.00;;;;;;5025835;28;20021;-76
2022/03/30 12:05:54;;;;;;;4.35;2.95;;;15.00;66.00;;;;;;4996257;28;20038;-77
2022/03/30 12:08:20;;;;;;;4.63;2.90;;;15.00;65.90;;;;;;5015207;28;20041;-77
2022/03/30 12:10:48;;;;;;;4.40;2.78;;;15.10;65.90;;;;;;5014496;28;20029;-77
2022/03/30 12:13:22;;;;;;;5.13;3.10;;;15.10;65.90;;;;;;4995584;28;20037;-77
2022/03/30 12:15:59;;;;;;;4.65;3.00;;;15.10;65.80;;;;;;4995326;28;20044;-76
2022/03/30 12:18:25;;;;;;;4.10;2.78;;;15.10;65.80;;;;;;4995425;28;20560;-77
2022/03/30 12:20:51;;;;;;;4.50;2.85;;;15.20;65.80;;;;;;4978515;28;20062;-77
2022/03/30 12:23:16;;;;;;;4.72;2.85;;;15.30;65.80;;;;;;5011040;28;20414;-77
2022/03/30 12:25:44;;;;;;;4.55;2.90;;;15.30;65.70;;;;;;4983081;28;20029;-78
2022/03/30 12:28:10;;;;;;;4.13;2.80;;;15.30;65.70;;;;;;4998932;28;20485;-78
2022/03/30 12:30:37;;;;;;;4.57;2.78;;;15.40;65.60;;;;;;4986779;28;20390;-78
2022/03/30 12:33:03;;;;;;;4.30;2.83;;;15.40;65.50;;;;;;5012033;28;20033;-77
2022/03/30 12:35:35;;;;;;;4.78;3.17;;;15.50;65.60;;;;;;4978789;28;20050;-77
2022/03/30 12:38:10;;;;;;;4.68;3.05;;;15.50;65.50;;;;;;4995689;28;20375;-77
2022/03/30 12:40:41;;;;;;;4.22;2.92;;;15.50;65.50;;;;;;5013764;28;20030;-78
2022/03/30 12:43:08;;;;;;;4.25;2.60;;;15.50;65.40;;;;;;5026665;28;20018;-78
2022/03/30 12:45:53;;;;;;;4.05;2.65;;;15.60;65.40;;;;;;4998159;28;20468;-77
2022/03/30 12:48:28;;;;;;;4.30;2.83;;;15.60;65.40;;;;;;4998070;28;20382;-77
2022/03/30 12:50:54;;;;;;;4.00;2.55;;;15.70;65.30;;;;;;5031997;28;20053;-78
2022/03/30 12:53:29;;;;;;;4.30;2.72;;;15.70;65.20;;;;;;4994109;28;20026;-78
2022/03/30 12:55:55;;;;;;;;;;;15.80;65.30;;;;;;5012318;28;20113;-77
2022/03/30 12:58:24;;;;;;;3.08;2.33;;;15.80;65.90;;;;;;4993910;28;20000;-77
2022/03/30 13:00:55;;;;;;;3.63;2.53;;;15.90;65.20;;;;;;5014038;28;20526;-78
2022/03/30 13:03:31;;;;;;;3.97;2.90;;;15.90;65.30;;;;;;5030276;28;20075;-79
2022/03/30 13:06:19;;;;;;;3.75;2.47;;;15.90;65.30;;;;;;5018982;28;20382;-77
2022/03/30 13:09:12;;;;;;;3.70;2.60;;;15.90;65.30;;;;;;5013524;28;20494;-78
2022/03/30 13:11:45;;;;;;;4.07;2.70;;;16.00;65.30;;;;;;5012634;28;20040;-78